Time;durP1;ratioP1;P1;durP2;ratioP2;P2;SDS_P1;SDS_P2;PMS_P1;PMS_P2;Temp;Humidity;BMP_temperature;BMP_pressure;BME280_temperature;BME280_humidity;BME280_pressure;Samples;Min_cycle;Max_cycle;Signal;HPM_P1;HPM_P2
2023/08/27 00:00:23;;;;;;;3.28;1.38;;;;;;;;;;5091144;28;20085;-79
2023/08/27 00:02:48;;;;;;;4.15;1.40;;;;;;;;;;5090777;28;20161;-76
2023/08/27 00:05:14;;;;;;;1.70;1.25;;;;;;;;;;5091205;28;20122;-77
2023/08/27 00:07:39;;;;;;;1.15;0.95;;;;;;;;;;5091150;28;20123;-77
2023/08/27 00:10:05;;;;;;;2.10;1.10;;;;;;;;;;5091546;28;20507;-77
2023/08/27 00:12:31;;;;;;;1.75;1.13;;;;;;;;;;5091413;28;20036;-77
2023/08/27 00:14:56;;;;;;;4.75;1.40;;;;;;;;;;5092964;28;20031;-77
2023/08/27 00:17:22;;;;;;;1.33;1.10;;;;;;;;;;5101695;28;20031;-77
2023/08/27 00:19:47;;;;;;;4.65;1.10;;;;;;;;;;5111612;28;20063;-77
2023/08/27 00:22:12;;;;;;;3.22;1.00;;;;;;;;;;5111161;28;20068;-77
2023/08/27 00:24:38;;;;;;;1.30;1.20;;;;;;;;;;5111228;28;20115;-77
2023/08/27 00:27:05;;;;;;;2.75;1.27;;;;;;;;;;5111030;28;20035;-77
2023/08/27 00:29:31;;;;;;;2.85;1.63;;;;;;;;;;5111215;28;20043;-77
2023/08/27 00:31:56;;;;;;;1.73;1.10;;;;;;;;;;5109208;28;20028;-77
2023/08/27 00:34:30;;;;;;;1.42;1.20;;;;;;;;;;5110965;28;20039;-78
2023/08/27 00:36:56;;;;;;;3.22;1.05;;;;;;;;;;5095890;28;20036;-77
2023/08/27 00:39:21;;;;;;;1.45;1.10;;;;;;;;;;5100285;28;20030;-77
2023/08/27 00:41:46;;;;;;;1.20;0.93;;;;;;;;;;5111422;28;20043;-77
2023/08/27 00:44:12;;;;;;;1.42;1.05;;;;;;;;;;5094768;28;20099;-77
2023/08/27 00:46:37;;;;;;;4.50;1.05;;;;;;;;;;5109002;28;20035;-77
2023/08/27 00:49:03;;;;;;;2.20;1.40;;;;;;;;;;5091284;28;20119;-78
2023/08/27 00:51:29;;;;;;;1.35;1.00;;;;;;;;;;5089846;28;20067;-77
2023/08/27 00:53:55;;;;;;;1.30;1.13;;;;;;;;;;5092408;28;20567;-78
2023/08/27 00:56:20;;;;;;;1.35;1.17;;;;;;;;;;5091380;28;20115;-77
2023/08/27 00:58:46;;;;;;;2.83;1.23;;;;;;;;;;5091324;28;20020;-77
2023/08/27 01:01:14;;;;;;;2.00;1.15;;;;;;;;;;5090475;28;20032;-78
2023/08/27 01:03:39;;;;;;;3.45;1.40;;;;;;;;;;5092354;28;20028;-78
2023/08/27 01:06:05;;;;;;;2.28;1.00;;;;;;;;;;5090871;28;20576;-77
2023/08/27 01:08:41;;;;;;;1.70;1.10;;;;;;;;;;5090627;28;20085;-77
2023/08/27 01:11:25;;;;;;;1.45;1.15;;;;;;;;;;5091870;28;20028;-77
2023/08/27 01:14:03;;;;;;;3.58;1.80;;;;;;;;;;5090925;28;20177;-77
2023/08/27 01:16:29;;;;;;;2.13;1.38;;;;;;;;;;5092007;28;20036;-78
2023/08/27 01:18:59;;;;;;;2.20;1.00;;;;;;;;;;5092072;28;20024;-77
2023/08/27 01:21:25;;;;;;;1.48;1.17;;;;;;;;;;5090290;28;20528;-77
2023/08/27 01:23:51;;;;;;;2.38;1.00;;;;;;;;;;5090660;28;20024;-77
2023/08/27 01:26:27;;;;;;;2.90;1.25;;;;;;;;;;5091529;28;20039;-77
2023/08/27 01:29:06;;;;;;;1.75;1.65;;;;;;;;;;5090471;28;20051;-76
2023/08/27 01:31:38;;;;;;;1.17;0.98;;;;;;;;;;5091209;28;20024;-77
2023/08/27 01:34:05;;;;;;;2.00;1.10;;;;;;;;;;5091856;28;20502;-77
2023/08/27 01:36:34;;;;;;;2.25;1.30;;;;;;;;;;5078121;28;20043;-77
2023/08/27 01:39:00;;;;;;;1.88;1.15;;;;;;;;;;5075737;28;20039;-77
2023/08/27 01:41:25;;;;;;;1.05;0.98;;;;;;;;;;5089945;28;20039;-77
2023/08/27 01:43:50;;;;;;;1.83;0.93;;;;;;;;;;5090339;28;20059;-77
2023/08/27 01:46:16;;;;;;;2.67;1.05;;;;;;;;;;5090142;28;20391;-77
2023/08/27 01:48:41;;;;;;;1.70;1.20;;;;;;;;;;5090050;28;20043;-77
2023/08/27 01:51:07;;;;;;;1.50;1.02;;;;;;;;;;5091212;28;20046;-76
2023/08/27 01:53:32;;;;;;;1.33;1.10;;;;;;;;;;5090222;28;20040;-77
2023/08/27 01:55:58;;;;;;;1.65;1.00;;;;;;;;;;5090177;28;20044;-77
2023/08/27 01:58:24;;;;;;;2.90;1.30;;;;;;;;;;5072992;28;20063;-78
2023/08/27 02:00:50;;;;;;;3.63;0.93;;;;;;;;;;5073014;28;20108;-77
2023/08/27 02:03:15;;;;;;;1.45;0.95;;;;;;;;;;5089986;28;20229;-77
2023/08/27 02:05:41;;;;;;;1.40;0.82;;;;;;;;;;5091375;28;20044;-77
2023/08/27 02:08:06;;;;;;;1.15;0.80;;;;;;;;;;5089755;28;20177;-78
2023/08/27 02:10:31;;;;;;;5.55;1.15;;;;;;;;;;5070982;28;20090;-77
2023/08/27 02:12:57;;;;;;;1.00;1.00;;;;;;;;;;5070972;28;20028;-77
2023/08/27 02:15:22;;;;;;;3.47;1.15;;;;;;;;;;5069579;28;20067;-77
2023/08/27 02:17:48;;;;;;;2.45;1.25;;;;;;;;;;5083229;28;20036;-77
2023/08/27 02:20:13;;;;;;;6.45;1.27;;;;;;;;;;5089763;28;20034;-77
2023/08/27 02:22:39;;;;;;;1.52;1.08;;;;;;;;;;5089362;28;20043;-77
2023/08/27 02:25:06;;;;;;;1.55;0.95;;;;;;;;;;5089725;28;20036;-77
2023/08/27 02:27:31;;;;;;;4.78;1.30;;;;;;;;;;5089746;28;20059;-78
2023/08/27 02:29:56;;;;;;;1.88;1.25;;;;;;;;;;5089995;28;20485;-77
2023/08/27 02:32:24;;;;;;;1.30;1.20;;;;;;;;;;5090652;28;20024;-77
2023/08/27 02:34:49;;;;;;;1.80;1.33;;;;;;;;;;5089941;28;20090;-78
2023/08/27 02:37:15;;;;;;;1.88;1.08;;;;;;;;;;5108165;28;20051;-77
2023/08/27 02:39:40;;;;;;;1.30;1.20;;;;;;;;;;5100075;28;20043;-77
2023/08/27 02:42:06;;;;;;;3.42;1.00;;;;;;;;;;5089203;28;20043;-77
2023/08/27 02:44:31;;;;;;;1.40;1.30;;;;;;;;;;5089751;28;20032;-77
2023/08/27 02:46:56;;;;;;;1.50;1.13;;;;;;;;;;5089520;28;20093;-77
2023/08/27 02:49:22;;;;;;;2.83;1.52;;;;;;;;;;5072374;28;20126;-78
2023/08/27 02:51:47;;;;;;;3.58;1.50;;;;;;;;;;5089341;28;20050;-77
2023/08/27 02:54:13;;;;;;;1.92;1.20;;;;;;;;;;5089625;28;20041;-76
2023/08/27 02:56:38;;;;;;;1.40;1.10;;;;;;;;;;5089633;28;20475;-78
2023/08/27 02:59:04;;;;;;;2.13;1.20;;;;;;;;;;5089695;28;20032;-77
2023/08/27 03:01:30;;;;;;;3.67;1.30;;;;;;;;;;5089224;28;20028;-77
2023/08/27 03:03:55;;;;;;;2.20;1.38;;;;;;;;;;5089551;28;20127;-77
2023/08/27 03:06:21;;;;;;;2.72;1.30;;;;;;;;;;5100316;28;20036;-77
2023/08/27 03:08:46;;;;;;;1.02;0.93;;;;;;;;;;5105636;28;20490;-78
2023/08/27 03:11:12;;;;;;;3.90;1.00;;;;;;;;;;5088892;28;20444;-77
2023/08/27 03:13:37;;;;;;;4.05;1.02;;;;;;;;;;5089474;28;20028;-77
2023/08/27 03:16:03;;;;;;;2.28;1.20;;;;;;;;;;5091551;28;20117;-78
2023/08/27 03:18:29;;;;;;;5.35;0.93;;;;;;;;;;5110984;28;20123;-76
2023/08/27 03:20:55;;;;;;;4.75;1.40;;;;;;;;;;5112980;28;20035;-77
2023/08/27 03:23:21;;;;;;;3.50;1.20;;;;;;;;;;5114719;28;20046;-77
2023/08/27 03:25:50;;;;;;;1.58;1.02;;;;;;;;;;5113287;28;20032;-77
2023/08/27 03:28:15;;;;;;;1.85;1.00;;;;;;;;;;5113218;28;20232;-77
2023/08/27 03:30:41;;;;;;;4.97;1.15;;;;;;;;;;5112799;28;20057;-77
2023/08/27 03:33:06;;;;;;;7.13;1.30;;;;;;;;;;5114385;28;20461;-77
2023/08/27 03:35:32;;;;;;;1.30;1.20;;;;;;;;;;5109232;28;20031;-77
2023/08/27 03:37:57;;;;;;;4.82;1.60;;;;;;;;;;5092742;28;20028;-76
2023/08/27 03:40:23;;;;;;;2.70;1.20;;;;;;;;;;5109808;28;20059;-77
2023/08/27 03:42:48;;;;;;;4.07;1.30;;;;;;;;;;5112623;28;20047;-77
2023/08/27 03:45:14;;;;;;;3.50;1.15;;;;;;;;;;5114387;28;20074;-77
2023/08/27 03:47:39;;;;;;;1.52;1.10;;;;;;;;;;5101280;28;20036;-77
2023/08/27 03:50:06;;;;;;;1.30;1.20;;;;;;;;;;5092420;28;20612;-77
2023/08/27 03:52:34;;;;;;;3.05;1.02;;;;;;;;;;5091530;28;20081;-77
2023/08/27 03:55:01;;;;;;;1.90;1.10;;;;;;;;;;5092314;28;20497;-77
2023/08/27 03:57:26;;;;;;;2.03;0.90;;;;;;;;;;5092042;28;20028;-77
2023/08/27 03:59:52;;;;;;;4.00;1.08;;;;;;;;;;5092126;28;20036;-77
2023/08/27 04:02:17;;;;;;;2.45;1.23;;;;;;;;;;5092925;28;20134;-77
2023/08/27 04:04:43;;;;;;;4.18;1.40;;;;;;;;;;5092282;28;20040;-77
2023/08/27 04:07:08;;;;;;;2.55;1.20;;;;;;;;;;5109300;28;20058;-76
2023/08/27 04:09:34;;;;;;;1.45;1.20;;;;;;;;;;5101694;28;20131;-77
2023/08/27 04:11:59;;;;;;;2.85;1.10;;;;;;;;;;5091448;28;20039;-77
2023/08/27 04:14:25;;;;;;;1.42;1.30;;;;;;;;;;5092029;28;20032;-77
2023/08/27 04:16:50;;;;;;;3.15;1.27;;;;;;;;;;5074672;28;20032;-76
2023/08/27 04:19:16;;;;;;;5.28;3.20;;;;;;;;;;5093767;28;20375;-77
2023/08/27 04:21:41;;;;;;;3.50;1.08;;;;;;;;;;5111690;28;20043;-76
2023/08/27 04:24:07;;;;;;;2.17;1.10;;;;;;;;;;5111545;28;20146;-77
2023/08/27 04:26:33;;;;;;;4.43;1.15;;;;;;;;;;5112140;28;20035;-76
2023/08/27 04:28:58;;;;;;;5.80;1.02;;;;;;;;;;5111931;28;20028;-77
2023/08/27 04:31:23;;;;;;;1.50;1.30;;;;;;;;;;5112950;28;20039;-76
2023/08/27 04:33:49;;;;;;;4.93;1.02;;;;;;;;;;5110397;28;20390;-77
2023/08/27 04:36:14;;;;;;;3.33;1.38;;;;;;;;;;5102207;28;20407;-78
2023/08/27 04:38:40;;;;;;;3.80;1.00;;;;;;;;;;5092738;28;20040;-77
2023/08/27 04:41:05;;;;;;;3.03;1.83;;;;;;;;;;5091073;28;20036;-77
2023/08/27 04:43:31;;;;;;;4.32;1.30;;;;;;;;;;5091374;28;20036;-77
2023/08/27 04:45:57;;;;;;;3.85;0.98;;;;;;;;;;5092004;28;20107;-77
2023/08/27 04:48:23;;;;;;;1.30;1.13;;;;;;;;;;5090265;28;20119;-78
2023/08/27 04:50:48;;;;;;;3.55;1.52;;;;;;;;;;5090670;28;20658;-77
2023/08/27 04:53:14;;;;;;;2.47;1.15;;;;;;;;;;5091297;28;20036;-77
2023/08/27 04:55:40;;;;;;;1.77;1.25;;;;;;;;;;5092577;28;20039;-77
2023/08/27 04:58:07;;;;;;;3.25;1.48;;;;;;;;;;5091160;28;20027;-77
2023/08/27 05:00:33;;;;;;;1.73;1.27;;;;;;;;;;5090990;28;20032;-77
2023/08/27 05:02:58;;;;;;;1.67;1.02;;;;;;;;;;5091841;28;20038;-76
2023/08/27 05:05:25;;;;;;;4.65;2.15;;;;;;;;;;5091108;28;20040;-78
2023/08/27 05:07:50;;;;;;;1.83;1.20;;;;;;;;;;5090639;28;20051;-77
2023/08/27 05:10:16;;;;;;;7.65;1.23;;;;;;;;;;5092068;28;20100;-78
2023/08/27 05:12:41;;;;;;;1.90;1.55;;;;;;;;;;5090571;28;20035;-77
2023/08/27 05:15:09;;;;;;;2.35;1.60;;;;;;;;;;5090701;28;20028;-78
2023/08/27 05:17:35;;;;;;;4.10;1.45;;;;;;;;;;5090703;28;20028;-78
2023/08/27 05:20:03;;;;;;;3.33;1.33;;;;;;;;;;5084093;28;20041;-78
2023/08/27 05:22:29;;;;;;;1.88;1.20;;;;;;;;;;5071704;28;20079;-78
2023/08/27 05:24:54;;;;;;;4.78;1.40;;;;;;;;;;5070456;28;20117;-77
2023/08/27 05:27:21;;;;;;;2.17;1.27;;;;;;;;;;5069822;28;20040;-78
2023/08/27 05:29:47;;;;;;;3.03;1.17;;;;;;;;;;5072261;28;20039;-78
2023/08/27 05:32:12;;;;;;;1.65;1.13;;;;;;;;;;5070084;28;20032;-77
2023/08/27 05:34:37;;;;;;;6.00;1.30;;;;;;;;;;5070175;28;20036;-78
2023/08/27 05:37:06;;;;;;;5.82;1.48;;;;;;;;;;5083625;28;20031;-78
2023/08/27 05:39:32;;;;;;;4.25;1.25;;;;;;;;;;5089763;28;20028;-77
2023/08/27 05:42:01;;;;;;;4.32;1.67;;;;;;;;;;5089909;28;20034;-77
2023/08/27 05:44:26;;;;;;;1.77;1.20;;;;;;;;;;5073327;28;20044;-77
2023/08/27 05:46:53;;;;;;;2.58;1.42;;;;;;;;;;5087744;28;20074;-78
2023/08/27 05:49:19;;;;;;;4.93;1.17;;;;;;;;;;5089568;28;20055;-77
2023/08/27 05:51:46;;;;;;;3.22;1.52;;;;;;;;;;5089522;28;20032;-77
2023/08/27 05:54:11;;;;;;;2.92;1.30;;;;;;;;;;5090299;28;20036;-76
2023/08/27 05:56:37;;;;;;;4.57;1.60;;;;;;;;;;5089774;28;20057;-77
2023/08/27 05:59:03;;;;;;;1.77;1.45;;;;;;;;;;5091377;28;20028;-76
2023/08/27 06:01:28;;;;;;;2.90;1.23;;;;;;;;;;5088560;28;20039;-76
2023/08/27 06:03:54;;;;;;;2.28;1.25;;;;;;;;;;5090182;28;20036;-79
2023/08/27 06:06:20;;;;;;;3.25;1.38;;;;;;;;;;5089708;28;20032;-78
2023/08/27 06:08:46;;;;;;;5.38;1.45;;;;;;;;;;5089960;28;20044;-77
2023/08/27 06:11:11;;;;;;;2.08;1.40;;;;;;;;;;5090701;28;20060;-76
2023/08/27 06:13:37;;;;;;;1.98;1.25;;;;;;;;;;5090022;28;20032;-77
2023/08/27 06:16:03;;;;;;;3.50;1.33;;;;;;;;;;5090200;28;20032;-77
2023/08/27 06:18:29;;;;;;;1.58;1.25;;;;;;;;;;5089608;28;20035;-78
2023/08/27 06:20:55;;;;;;;1.92;1.30;;;;;;;;;;5104655;28;20513;-78
2023/08/27 06:23:21;;;;;;;3.03;1.27;;;;;;;;;;5093358;28;20027;-77
2023/08/27 06:25:47;;;;;;;2.60;1.10;;;;;;;;;;5109776;28;20035;-77
2023/08/27 06:28:12;;;;;;;7.72;1.27;;;;;;;;;;5110979;28;20038;-77
2023/08/27 06:30:41;;;;;;;1.95;1.35;;;;;;;;;;5110076;28;20027;-76
2023/08/27 06:33:09;;;;;;;1.83;1.40;;;;;;;;;;5110289;28;20036;-76
2023/08/27 06:35:35;;;;;;;2.78;1.50;;;;;;;;;;5105750;28;20044;-76
2023/08/27 06:38:01;;;;;;;6.10;1.65;;;;;;;;;;5090604;28;20533;-74
2023/08/27 06:40:26;;;;;;;3.05;1.50;;;;;;;;;;5089357;28;20032;-77
2023/08/27 06:42:52;;;;;;;4.78;1.65;;;;;;;;;;5088979;28;20100;-76
2023/08/27 06:45:21;;;;;;;3.28;1.70;;;;;;;;;;5089177;28;20080;-76
2023/08/27 06:47:46;;;;;;;1.58;1.40;;;;;;;;;;5089514;28;20032;-77
2023/08/27 06:50:12;;;;;;;9.80;2.00;;;;;;;;;;5090803;28;20394;-76
2023/08/27 06:52:37;;;;;;;5.03;1.48;;;;;;;;;;5094292;28;20032;-76
2023/08/27 06:55:03;;;;;;;5.80;1.73;;;;;;;;;;5093357;28;20380;-76
2023/08/27 06:57:28;;;;;;;5.55;2.15;;;;;;;;;;5093026;28;20032;-77
2023/08/27 06:59:54;;;;;;;1.40;1.30;;;;;;;;;;5092736;28;20047;-76
2023/08/27 07:02:19;;;;;;;3.95;1.70;;;;;;;;;;5092073;28;20123;-76
2023/08/27 07:04:46;;;;;;;3.47;1.83;;;;;;;;;;5093663;28;20411;-76
2023/08/27 07:07:13;;;;;;;4.38;1.30;;;;;;;;;;5092585;28;20052;-76
2023/08/27 07:09:38;;;;;;;3.28;1.38;;;;;;;;;;5093184;28;20040;-76
2023/08/27 07:12:05;;;;;;;4.03;1.20;;;;;;;;;;5092333;28;20066;-76
2023/08/27 07:14:30;;;;;;;2.03;1.75;;;;;;;;;;5093154;28;20135;-76
2023/08/27 07:16:56;;;;;;;6.03;1.80;;;;;;;;;;5099176;28;20549;-76
2023/08/27 07:19:21;;;;;;;3.65;1.63;;;;;;;;;;5112423;28;20028;-77
2023/08/27 07:21:47;;;;;;;5.60;3.22;;;;;;;;;;5112856;28;20042;-77
2023/08/27 07:24:13;;;;;;;3.17;1.40;;;;;;;;;;5112703;28;20546;-77
2023/08/27 07:26:40;;;;;;;11.93;2.25;;;;;;;;;;5112856;28;20031;-77
2023/08/27 07:29:05;;;;;;;2.92;2.08;;;;;;;;;;5096359;28;20115;-77
2023/08/27 07:31:31;;;;;;;5.57;1.67;;;;;;;;;;5112592;28;20058;-77
2023/08/27 07:33:57;;;;;;;3.67;1.60;;;;;;;;;;5113215;28;20035;-77
2023/08/27 07:36:22;;;;;;;3.97;1.65;;;;;;;;;;5102092;28;20475;-77
2023/08/27 07:38:48;;;;;;;2.95;1.60;;;;;;;;;;5092753;28;20085;-77
2023/08/27 07:41:14;;;;;;;5.78;1.98;;;;;;;;;;5091958;28;20043;-76
2023/08/27 07:43:39;;;;;;;2.92;1.70;;;;;;;;;;5093601;28;20040;-77
2023/08/27 07:46:05;;;;;;;1.95;1.40;;;;;;;;;;5092128;28;20119;-77
2023/08/27 07:48:31;;;;;;;4.65;1.90;;;;;;;;;;5110061;28;20505;-77
2023/08/27 07:50:58;;;;;;;3.15;1.77;;;;;;;;;;5097291;28;20783;-78
2023/08/27 07:53:24;;;;;;;7.55;1.83;;;;;;;;;;5092386;28;20032;-77
2023/08/27 07:55:50;;;;;;;6.32;1.50;;;;;;;;;;5092375;28;20039;-77
2023/08/27 07:58:15;;;;;;;3.72;1.80;;;;;;;;;;5092551;28;20032;-78
2023/08/27 08:00:41;;;;;;;2.38;1.50;;;;;;;;;;5091770;28;20047;-77
2023/08/27 08:03:07;;;;;;;3.97;1.88;;;;;;;;;;5091516;28;20032;-77
2023/08/27 08:05:33;;;;;;;3.58;1.67;;;;;;;;;;5093449;28;20062;-77
2023/08/27 08:07:58;;;;;;;7.20;1.63;;;;;;;;;;5092793;28;20036;-78
2023/08/27 08:10:26;;;;;;;3.55;1.85;;;;;;;;;;5092008;28;20036;-78
2023/08/27 08:12:52;;;;;;;9.23;2.00;;;;;;;;;;5093347;28;20704;-77
2023/08/27 08:15:18;;;;;;;3.92;1.73;;;;;;;;;;5088217;28;20119;-76
2023/08/27 08:17:44;;;;;;;3.20;1.33;;;;;;;;;;5084019;28;20032;-78
2023/08/27 08:20:11;;;;;;;5.05;1.73;;;;;;;;;;5074108;28;20033;-77
2023/08/27 08:22:37;;;;;;;4.72;1.73;;;;;;;;;;5087363;28;20059;-78
2023/08/27 08:25:03;;;;;;;5.00;1.88;;;;;;;;;;5088217;28;20154;-76
2023/08/27 08:27:29;;;;;;;4.22;1.58;;;;;;;;;;5074147;28;20059;-78
2023/08/27 08:29:54;;;;;;;3.97;1.95;;;;;;;;;;5089898;28;20554;-76
2023/08/27 08:32:20;;;;;;;2.45;1.45;;;;;;;;;;5091709;28;20051;-78
2023/08/27 08:34:45;;;;;;;2.60;1.30;;;;;;;;;;5093475;28;20077;-77
2023/08/27 08:37:11;;;;;;;4.68;1.48;;;;;;;;;;5093020;28;20028;-78
2023/08/27 08:39:37;;;;;;;6.80;1.50;;;;;;;;;;5092981;28;20138;-76
2023/08/27 08:42:12;;;;;;;5.10;2.08;;;;;;;;;;5092014;28;20058;-77
2023/08/27 08:45:05;;;;;;;3.85;1.65;;;;;;;;;;5092940;28;20040;-77
2023/08/27 08:47:35;;;;;;;5.68;1.63;;;;;;;;;;5102373;28;20436;-77
2023/08/27 08:50:04;;;;;;;6.32;1.65;;;;;;;;;;5112978;28;20046;-77
2023/08/27 08:52:36;;;;;;;5.30;1.50;;;;;;;;;;5112845;28;20472;-77
2023/08/27 08:55:03;;;;;;;1.48;1.33;;;;;;;;;;5112936;27;20035;-77
2023/08/27 08:57:31;;;;;;;7.32;1.60;;;;;;;;;;5112844;28;20035;-77
2023/08/27 08:59:56;;;;;;;2.88;1.50;;;;;;;;;;5112953;28;20043;-77
2023/08/27 09:02:22;;;;;;;1.88;1.38;;;;;;;;;;5112244;28;20042;-77
2023/08/27 09:04:47;;;;;;;1.55;1.10;;;;;;;;;;5112729;28;20031;-77
2023/08/27 09:07:13;;;;;;;6.70;1.77;;;;;;;;;;5094402;28;20499;-78
2023/08/27 09:09:40;;;;;;;2.22;1.42;;;;;;;;;;5092308;28;20082;-77
2023/08/27 09:12:08;;;;;;;2.20;1.30;;;;;;;;;;5090417;28;20039;-77
2023/08/27 09:14:35;;;;;;;2.67;1.52;;;;;;;;;;5091910;28;20097;-78
2023/08/27 09:17:01;;;;;;;1.80;1.40;;;;;;;;;;5092156;28;20036;-77
2023/08/27 09:19:26;;;;;;;2.97;1.30;;;;;;;;;;5092141;28;20122;-77
2023/08/27 09:21:52;;;;;;;1.90;1.30;;;;;;;;;;5092185;28;20498;-77
2023/08/27 09:24:17;;;;;;;3.80;1.40;;;;;;;;;;5092269;28;20036;-77
2023/08/27 09:26:43;;;;;;;2.75;1.33;;;;;;;;;;5098846;28;20031;-80
2023/08/27 09:29:08;;;;;;;1.77;1.23;;;;;;;;;;5098755;28;20038;-79
2023/08/27 09:31:38;;;;;;;5.10;1.67;;;;;;;;;;5095063;28;20064;-79
2023/08/27 09:34:04;;;;;;;2.40;1.30;;;;;;;;;;5094291;28;20031;-80
2023/08/27 09:36:32;;;;;;;1.88;1.40;;;;;;;;;;5107480;28;20209;-77
2023/08/27 09:39:07;;;;;;;3.42;1.20;;;;;;;;;;5112011;28;20040;-77
2023/08/27 09:41:36;;;;;;;2.38;1.20;;;;;;;;;;5106438;28;20036;-79
2023/08/27 09:44:02;;;;;;;3.60;1.20;;;;;;;;;;5094078;28;20043;-78
2023/08/27 09:46:27;;;;;;;1.55;0.82;;;;;;;;;;5091807;28;20043;-77
2023/08/27 09:49:07;;;;;;;1.92;0.95;;;;;;;;;;5092188;28;20024;-77
2023/08/27 09:51:37;;;;;;;3.60;1.13;;;;;;;;;;5091483;28;20051;-78
2023/08/27 09:54:19;;;;;;;5.07;2.10;;;;;;;;;;5091409;28;20036;-77
2023/08/27 09:56:49;;;;;;;2.28;1.50;;;;;;;;;;5091843;28;20048;-78
2023/08/27 09:59:19;;;;;;;2.58;1.15;;;;;;;;;;5091549;28;20117;-78
2023/08/27 10:01:48;;;;;;;5.95;2.38;;;;;;;;;;5089831;28;20032;-78
2023/08/27 10:04:14;;;;;;;35.95;2.97;;;;;;;;;;5090430;28;20067;-77
2023/08/27 10:06:39;;;;;;;4.07;1.40;;;;;;;;;;5091622;28;20124;-78
2023/08/27 10:09:05;;;;;;;5.28;1.35;;;;;;;;;;5091519;28;20090;-77
2023/08/27 10:11:32;;;;;;;14.27;1.60;;;;;;;;;;5085477;28;20070;-77
2023/08/27 10:13:58;;;;;;;3.55;1.20;;;;;;;;;;5072338;28;20124;-79
2023/08/27 10:16:24;;;;;;;1.70;0.77;;;;;;;;;;5073612;28;20068;-79
2023/08/27 10:18:49;;;;;;;2.28;1.05;;;;;;;;;;5093303;28;20028;-78
2023/08/27 10:21:16;;;;;;;1.40;0.90;;;;;;;;;;5093338;28;20036;-79
2023/08/27 10:23:42;;;;;;;0.90;0.73;;;;;;;;;;5094611;28;20097;-80
2023/08/27 10:26:08;;;;;;;2.25;1.00;;;;;;;;;;5099311;28;20032;-79
2023/08/27 10:28:35;;;;;;;1.85;0.77;;;;;;;;;;5096970;28;20032;-77
2023/08/27 10:31:03;;;;;;;1.52;0.85;;;;;;;;;;5095743;28;20051;-79
2023/08/27 10:33:29;;;;;;;3.75;1.10;;;;;;;;;;5097861;28;20399;-79
2023/08/27 10:35:59;;;;;;;3.30;0.90;;;;;;;;;;5097219;28;20040;-80
2023/08/27 10:38:25;;;;;;;1.70;0.85;;;;;;;;;;5095697;28;20028;-78
2023/08/27 10:40:51;;;;;;;2.80;1.05;;;;;;;;;;5095312;28;20040;-78
2023/08/27 10:43:20;;;;;;;1.27;0.88;;;;;;;;;;5095613;28;20089;-79
2023/08/27 10:45:48;;;;;;;1.38;0.80;;;;;;;;;;5094649;28;20179;-76
2023/08/27 10:48:26;;;;;;;1.20;0.80;;;;;;;;;;5094895;28;20030;-77
2023/08/27 10:51:08;;;;;;;2.30;1.02;;;;;;;;;;5106812;28;20039;-76
2023/08/27 10:53:53;;;;;;;2.00;0.90;;;;;;;;;;5106007;28;20036;-77
2023/08/27 10:56:32;;;;;;;0.70;0.70;;;;;;;;;;5096981;28;20040;-79
2023/08/27 10:58:59;;;;;;;0.80;0.80;;;;;;;;;;5095485;28;20044;-79
2023/08/27 11:01:25;;;;;;;1.45;1.00;;;;;;;;;;5096338;28;20051;-79
2023/08/27 11:04:01;;;;;;;0.70;0.70;;;;;;;;;;5096921;28;20035;-78
2023/08/27 11:06:46;;;;;;;2.00;0.88;;;;;;;;;;5095995;28;20043;-79
2023/08/27 11:09:12;;;;;;;5.73;1.43;;;;;;;;;;5095067;28;20046;-78
2023/08/27 11:11:50;;;;;;;2.00;0.88;;;;;;;;;;5097355;28;20059;-82
2023/08/27 11:14:16;;;;;;;1.60;0.65;;;;;;;;;;5101232;28;20028;-81
2023/08/27 11:16:58;;;;;;;5.32;1.00;;;;;;;;;;5098382;28;20042;-82
2023/08/27 11:19:30;;;;;;;1.67;0.90;;;;;;;;;;5098521;28;20028;-79
2023/08/27 11:22:18;;;;;;;0.95;0.90;;;;;;;;;;5094381;28;20559;-77
2023/08/27 11:24:52;;;;;;;1.15;0.90;;;;;;;;;;5095089;28;20028;-77
2023/08/27 11:27:19;;;;;;;5.50;1.10;;;;;;;;;;5094935;28;20065;-79
2023/08/27 11:29:48;;;;;;;0.90;0.75;;;;;;;;;;5094605;28;20087;-80
2023/08/27 11:32:13;;;;;;;0.60;0.60;;;;;;;;;;5094639;28;20403;-78
2023/08/27 11:34:42;;;;;;;1.25;1.00;;;;;;;;;;5095214;28;20107;-79
2023/08/27 11:37:08;;;;;;;0.93;0.90;;;;;;;;;;5115817;28;20490;-80
2023/08/27 11:39:37;;;;;;;1.45;0.90;;;;;;;;;;5119364;28;20027;-82
2023/08/27 11:42:15;;;;;;;1.58;0.93;;;;;;;;;;5119938;28;20212;-82
2023/08/27 11:44:52;;;;;;;1.38;1.00;;;;;;;;;;5118881;28;20063;-82
2023/08/27 11:47:20;;;;;;;1.80;0.90;;;;;;;;;;5112677;28;20391;-83
2023/08/27 11:49:46;;;;;;;1.25;0.88;;;;;;;;;;5099712;28;20032;-84
2023/08/27 11:52:15;;;;;;;1.15;0.98;;;;;;;;;;5099139;28;20380;-80
2023/08/27 11:54:43;;;;;;;1.35;0.85;;;;;;;;;;5099700;28;20070;-81
2023/08/27 11:57:09;;;;;;;1.13;0.80;;;;;;;;;;5098793;28;20035;-83
2023/08/27 11:59:37;;;;;;;1.13;1.00;;;;;;;;;;5098970;28;20028;-82
2023/08/27 12:02:04;;;;;;;1.63;0.77;;;;;;;;;;5098019;28;20107;-80
2023/08/27 12:04:32;;;;;;;0.95;0.80;;;;;;;;;;5098015;28;20091;-80
2023/08/27 12:07:02;;;;;;;1.52;1.00;;;;;;;;;;5097253;28;20032;-80
2023/08/27 12:09:29;;;;;;;1.35;0.82;;;;;;;;;;5096518;28;20036;-80
2023/08/27 12:12:00;;;;;;;2.00;0.90;;;;;;;;;;5096847;28;20085;-80
2023/08/27 12:14:26;;;;;;;0.80;0.80;;;;;;;;;;5097084;28;20043;-80
2023/08/27 12:16:53;;;;;;;0.98;0.75;;;;;;;;;;5096447;28;20684;-80
2023/08/27 12:19:22;;;;;;;0.93;0.82;;;;;;;;;;5096238;28;20383;-80
2023/08/27 12:21:50;;;;;;;1.20;0.80;;;;;;;;;;5075360;28;20036;-80
2023/08/27 12:24:40;;;;;;;0.95;0.88;;;;;;;;;;5074776;28;20452;-81
2023/08/27 12:27:07;;;;;;;2.25;0.98;;;;;;;;;;5076125;28;20135;-82
2023/08/27 12:29:38;;;;;;;0.60;0.60;;;;;;;;;;5081610;28;20044;-82
2023/08/27 12:32:16;;;;;;;0.80;0.80;;;;;;;;;;5084332;28;20117;-83
2023/08/27 12:34:49;;;;;;;0.80;0.75;;;;;;;;;;5079315;28;20047;-82
2023/08/27 12:37:17;;;;;;;1.23;0.80;;;;;;;;;;5097351;28;20620;-82
2023/08/27 12:39:43;;;;;;;1.05;0.88;;;;;;;;;;5098346;28;20024;-81
2023/08/27 12:42:10;;;;;;;1.77;0.75;;;;;;;;;;5098070;28;20043;-80
2023/08/27 12:44:36;;;;;;;2.20;1.08;;;;;;;;;;5098196;28;20032;-81
2023/08/27 12:47:02;;;;;;;1.10;0.85;;;;;;;;;;5091503;28;20403;-80
2023/08/27 12:49:28;;;;;;;0.90;0.70;;;;;;;;;;5078979;28;20047;-80
2023/08/27 12:51:54;;;;;;;1.33;0.98;;;;;;;;;;5117817;28;20043;-82
2023/08/27 12:54:20;;;;;;;1.45;1.00;;;;;;;;;;5118700;27;20505;-80
2023/08/27 12:56:46;;;;;;;1.75;1.05;;;;;;;;;;5117833;28;20065;-80
2023/08/27 12:59:11;;;;;;;1.67;1.13;;;;;;;;;;5118210;28;20027;-81
2023/08/27 13:01:39;;;;;;;2.05;0.93;;;;;;;;;;5116723;28;20552;-82
2023/08/27 13:04:05;;;;;;;0.60;0.60;;;;;;;;;;5118200;28;20566;-81
2023/08/27 13:06:30;;;;;;;1.58;1.00;;;;;;;;;;5104774;28;20123;-80
2023/08/27 13:08:56;;;;;;;0.82;0.80;;;;;;;;;;5097128;28;20094;-80
2023/08/27 13:11:22;;;;;;;1.15;0.80;;;;;;;;;;5096009;28;20039;-82
2023/08/27 13:13:47;;;;;;;2.65;0.88;;;;;;;;;;5097026;28;20051;-82
2023/08/27 13:16:13;;;;;;;1.40;0.90;;;;;;;;;;5096505;28;20035;-81
2023/08/27 13:18:38;;;;;;;1.45;1.15;;;;;;;;;;5096225;28;20020;-81
2023/08/27 13:21:04;;;;;;;1.13;0.90;;;;;;;;;;5095098;28;20495;-81
2023/08/27 13:23:30;;;;;;;2.20;1.30;;;;;;;;;;5099658;28;20040;-83
2023/08/27 13:25:55;;;;;;;1.60;0.90;;;;;;;;;;5098783;28;20042;-80
2023/08/27 13:28:21;;;;;;;0.98;0.80;;;;;;;;;;5098701;28;20028;-81
2023/08/27 13:30:46;;;;;;;2.45;1.13;;;;;;;;;;5097652;28;20433;-82
2023/08/27 13:33:12;;;;;;;1.55;1.05;;;;;;;;;;5097806;28;20032;-83
2023/08/27 13:35:38;;;;;;;1.38;0.90;;;;;;;;;;5092090;28;20043;-80
2023/08/27 13:38:03;;;;;;;1.52;0.80;;;;;;;;;;5076921;28;20036;-82
2023/08/27 13:40:29;;;;;;;1.60;0.90;;;;;;;;;;5075641;28;20036;-81
2023/08/27 13:42:55;;;;;;;0.88;0.70;;;;;;;;;;5074046;28;20169;-82
2023/08/27 13:45:21;;;;;;;1.27;1.00;;;;;;;;;;5076100;28;20445;-83
2023/08/27 13:47:47;;;;;;;0.85;0.80;;;;;;;;;;5086715;28;20054;-79
2023/08/27 13:50:12;;;;;;;1.20;0.77;;;;;;;;;;5089539;28;20044;-82
2023/08/27 13:52:38;;;;;;;0.55;0.55;;;;;;;;;;5078274;28;20047;-82
2023/08/27 13:55:04;;;;;;;0.85;0.70;;;;;;;;;;5078377;28;20032;-81
2023/08/27 13:57:29;;;;;;;1.65;0.80;;;;;;;;;;5076633;28;20032;-82
2023/08/27 13:59:54;;;;;;;1.55;0.82;;;;;;;;;;5075991;28;20071;-81
2023/08/27 14:02:20;;;;;;;0.52;0.52;;;;;;;;;;5075819;28;20040;-80
2023/08/27 14:04:45;;;;;;;0.85;0.65;;;;;;;;;;5075081;28;20029;-82
2023/08/27 14:07:11;;;;;;;0.88;0.80;;;;;;;;;;5075619;28;20100;-80
2023/08/27 14:09:37;;;;;;;1.33;0.95;;;;;;;;;;5075031;28;20495;-81
2023/08/27 14:12:05;;;;;;;5.97;1.02;;;;;;;;;;5072641;28;20036;-80
2023/08/27 14:14:30;;;;;;;2.22;1.00;;;;;;;;;;5074645;28;20094;-80
2023/08/27 14:16:55;;;;;;;0.85;0.80;;;;;;;;;;5074719;28;20197;-80
2023/08/27 14:19:21;;;;;;;0.90;0.77;;;;;;;;;;5075325;28;20037;-81
2023/08/27 14:21:46;;;;;;;2.45;0.90;;;;;;;;;;5094429;28;20130;-80
2023/08/27 14:24:13;;;;;;;1.33;1.05;;;;;;;;;;5095863;28;20042;-82
2023/08/27 14:26:39;;;;;;;1.92;0.80;;;;;;;;;;5097282;28;20546;-82
2023/08/27 14:29:05;;;;;;;1.58;1.00;;;;;;;;;;5096477;28;20032;-82
2023/08/27 14:31:30;;;;;;;2.30;0.93;;;;;;;;;;5095642;28;20395;-82
2023/08/27 14:34:04;;;;;;;1.67;0.90;;;;;;;;;;5093841;28;20062;-80
2023/08/27 14:36:29;;;;;;;1.40;0.90;;;;;;;;;;5082865;28;20032;-80
2023/08/27 14:38:55;;;;;;;1.25;0.90;;;;;;;;;;5077335;28;20035;-83
2023/08/27 14:41:20;;;;;;;1.45;1.02;;;;;;;;;;5077976;28;20055;-81